WMKC/KBR METAR and TAF weather

Enter ICAO airport designator
Station Type Date Time Source
WMKC METAR 2019/06/27 08:00 UTC NOAA

WMKC 270800Z 06006KT 020V100 9999 FEW018 BKN140 31/26 Q1007


Station Type Date Time Source
WMKC Decoded METAR 2019/06/27 08:00 UTC NOAA

Kota Bharu, Malaysia (WMKC) 06-10N 102-17E 5M
Jun 27, 2019 - 04:00 AM EDT / 2019.06.27 0800 UTC
Wind: from the ENE (060 degrees) at 7 MPH (6 KT) (direction variable):0
Visibility: greater than 7 mile(s):0
Sky conditions: mostly cloudy
Temperature: 87 F (31 C)
Heat index: 99.7 F (37.6 C):1
Dew Point: 78 F (26 C)
Relative Humidity: 74%
Pressure (altimeter): 29.74 in. Hg (1007 hPa)
ob: WMKC 270800Z 06006KT 020V100 9999 FEW018 BKN140 31/26 Q1007
cycle: 8

Station Type Date Time Source
WMKC TAF 2019/06/27 06:00 UTC NOAA

TAF WMKC 270500Z 2706/2806 22005KT 9999 FEW020
BECMG 2707/2709 06005KT
TEMPO 2710/2714 5000 TSRA FEW008 FEW017CB SCT020

Example: see airport list